Loma, Montana
Current Conditions -  °F | °C
As of 4:56 AM on Tuesday 27 Jan 2015 (Local Time) from KGFA Reporting Station
Broken Clouds Broken Clouds  
Wind Chill: 50°   Ceiling: 24000
Heat Index: 50°   Visibility: 10mi
Dew Point: 29°   Wind: 17mph
Humidity: 44%   Direction: 210°SSW
Pressure: 29.9"   Gusts: NA
Location:  47.93°N, 110.49°W
Report Text: KGFA 271156Z AUTO 21015KT 10SM BKN240 10/M02 A2990 RMK AO2 SLP129 T01011018 10123 20101 58001
Loading
Personal Weather Stations






























Interactive Weather Map New forecast layout! Learn more

10-Day Weather Forecast

Advertisements
Track Severe Weather on mobile